Sacramento, California
Traffic Map
Current Weather Conditions
Sacramento, California
Clear Haze
Clear
47°
Feels Like: 45°
Wind Chill: 45° Ceiling: Unl
Heat Index: 47° Visibility: 6mi
Dew Point: 43° Wind: 5mph
Humidity: 86% Direction: 130° (SE)
Pressure: 30.07in Gusts: 0mph
Raw Report DataKSAC 260553Z AUTO 13004KT 6SM BR CLR 08/06 A3007 RMK AO2 SLP182 T00830061 10144 20083 51010
Traffic Incident Summary
Active as of:
Severity:
Category:
InformationThere was an issue retrieving the traffic information for this location. Please try a different location or try again shortly.
Advertisements
Track Severe Weather on mobile